Time;durP1;ratioP1;P1;durP2;ratioP2;P2;SDS_P1;SDS_P2;PMS_P1;PMS_P2;Temp;Humidity;BMP_temperature;BMP_pressure;BME280_temperature;BME280_humidity;BME280_pressure;Samples;Min_cycle;Max_cycle;Signal;HPM_P1;HPM_P2
2023/08/21 00:02:16;;;;;;;3.55;1.38;;;21.00;97.20;;;;;;5065826;28;20496;-76
2023/08/21 00:04:42;;;;;;;6.82;1.70;;;20.90;97.40;;;;;;5067520;28;20032;-76
2023/08/21 00:07:09;;;;;;;3.85;1.60;;;21.00;97.60;;;;;;5066440;28;20064;-76
2023/08/21 00:09:34;;;;;;;4.85;1.08;;;21.00;97.60;;;;;;5066828;28;20021;-76
2023/08/21 00:12:00;;;;;;;3.03;1.15;;;21.00;97.60;;;;;;5052242;28;20393;-76
2023/08/21 00:14:26;;;;;;;3.60;1.40;;;21.00;97.70;;;;;;5066855;28;20025;-76
2023/08/21 00:16:51;;;;;;;3.50;1.40;;;21.00;97.90;;;;;;5056560;28;20056;-76
2023/08/21 00:19:17;;;;;;;4.18;1.65;;;21.00;97.90;;;;;;5060489;28;20070;-76
2023/08/21 00:21:42;;;;;;;4.38;1.60;;;21.00;98.00;;;;;;5066974;28;20496;-76
2023/08/21 00:24:08;;;;;;;3.30;1.35;;;21.00;98.00;;;;;;5055417;28;20024;-76
2023/08/21 00:26:33;;;;;;;4.03;1.58;;;21.00;98.10;;;;;;5052166;28;20033;-75
2023/08/21 00:28:59;;;;;;;5.60;1.45;;;21.00;98.20;;;;;;5063568;28;20104;-76
2023/08/21 00:31:25;;;;;;;3.75;1.13;;;21.10;98.20;;;;;;5050981;28;20108;-76
2023/08/21 00:33:50;;;;;;;3.35;1.52;;;21.10;98.30;;;;;;5057811;28;20064;-76
2023/08/21 00:36:16;;;;;;;5.55;1.40;;;21.10;98.40;;;;;;5062434;28;20028;-76
2023/08/21 00:38:43;;;;;;;3.63;1.40;;;21.10;98.40;;;;;;5070973;28;20028;-76
2023/08/21 00:41:08;;;;;;;7.50;1.45;;;21.10;98.40;;;;;;5069971;28;20408;-76
2023/08/21 00:43:34;;;;;;;2.80;1.55;;;21.20;98.40;;;;;;5070404;28;20028;-76
2023/08/21 00:46:00;;;;;;;3.17;1.75;;;21.20;98.50;;;;;;5063092;28;20029;-76
2023/08/21 00:48:25;;;;;;;4.45;1.23;;;21.20;98.50;;;;;;5052012;28;20031;-76
2023/08/21 00:50:51;;;;;;;2.95;1.13;;;21.30;98.50;;;;;;5055200;28;20040;-76
2023/08/21 00:53:17;;;;;;;4.35;1.42;;;21.30;98.60;;;;;;5051082;28;20121;-76
2023/08/21 00:55:43;;;;;;;5.32;1.90;;;21.20;98.60;;;;;;5056213;28;20432;-76
2023/08/21 00:58:13;;;;;;;2.17;1.30;;;21.30;98.60;;;;;;5063556;28;20086;-76
2023/08/21 01:00:41;;;;;;;4.55;1.30;;;21.30;98.70;;;;;;5064387;28;20025;-76
2023/08/21 01:03:07;;;;;;;2.78;1.08;;;21.30;98.80;;;;;;5063865;28;20040;-76
2023/08/21 01:05:35;;;;;;;3.42;1.45;;;21.20;98.90;;;;;;5050440;28;20037;-76
2023/08/21 01:08:06;;;;;;;6.25;1.48;;;21.20;99.00;;;;;;5060576;28;20039;-76
2023/08/21 01:10:35;;;;;;;6.25;1.70;;;21.20;99.10;;;;;;5063765;28;20032;-76
2023/08/21 01:13:16;;;;;;;2.83;1.67;;;21.10;99.20;;;;;;5050715;28;20029;-76
2023/08/21 01:15:44;;;;;;;3.13;1.40;;;21.10;99.30;;;;;;5050805;28;20032;-76
2023/08/21 01:18:10;;;;;;;3.55;1.60;;;21.00;99.30;;;;;;5047199;28;20021;-76
2023/08/21 01:20:36;;;;;;;4.60;1.90;;;21.00;99.40;;;;;;5051357;28;20028;-76
2023/08/21 01:23:05;;;;;;;5.45;1.52;;;21.00;99.50;;;;;;5051663;28;20021;-76
2023/08/21 01:25:32;;;;;;;3.40;1.40;;;20.90;99.60;;;;;;5051340;28;20040;-76
2023/08/21 01:27:57;;;;;;;5.50;1.65;;;20.90;99.70;;;;;;5051085;28;20025;-76
2023/08/21 01:30:23;;;;;;;4.95;1.70;;;20.80;99.70;;;;;;5051015;28;20032;-76
2023/08/21 01:33:16;;;;;;;4.55;1.30;;;20.80;99.90;;;;;;5051283;28;20020;-76
2023/08/21 01:35:42;;;;;;;4.50;1.45;;;20.70;99.90;;;;;;5041083;28;20084;-76
2023/08/21 01:38:07;;;;;;;3.15;1.42;;;20.70;99.90;;;;;;5051055;28;20024;-76
2023/08/21 01:40:33;;;;;;;4.38;1.45;;;20.60;99.90;;;;;;5050881;28;20033;-76
2023/08/21 01:42:59;;;;;;;3.55;1.20;;;20.60;99.90;;;;;;5051488;28;20099;-76
2023/08/21 01:45:24;;;;;;;5.28;1.52;;;20.60;99.90;;;;;;5050653;28;20095;-76
2023/08/21 01:47:50;;;;;;;4.00;2.03;;;20.60;99.90;;;;;;5051315;28;20092;-76
2023/08/21 01:50:16;;;;;;;4.43;1.60;;;20.50;99.90;;;;;;5050192;28;20028;-76
2023/08/21 01:52:42;;;;;;;3.78;1.85;;;20.50;99.90;;;;;;5063646;28;20055;-76
2023/08/21 01:55:08;;;;;;;5.85;1.60;;;20.50;99.90;;;;;;5058430;28;20032;-76
2023/08/21 01:57:33;;;;;;;3.63;1.38;;;20.50;99.90;;;;;;5068680;28;20059;-76
2023/08/21 01:59:59;;;;;;;4.40;1.25;;;20.50;99.90;;;;;;5070326;28;20055;-76
2023/08/21 02:02:25;;;;;;;5.07;1.55;;;20.50;99.90;;;;;;5069149;28;20058;-76
2023/08/21 02:04:50;;;;;;;5.25;1.55;;;20.50;99.90;;;;;;5061914;28;20029;-76
2023/08/21 02:07:16;;;;;;;7.13;2.28;;;20.50;99.90;;;;;;5050055;28;20025;-76
2023/08/21 02:09:41;;;;;;;4.35;1.27;;;20.50;99.90;;;;;;5049973;28;20049;-76
2023/08/21 02:12:07;;;;;;;3.78;1.73;;;20.50;99.90;;;;;;5049438;28;20747;-76
2023/08/21 02:14:32;;;;;;;2.72;1.10;;;20.60;99.90;;;;;;5049603;28;20025;-76
2023/08/21 02:16:58;;;;;;;5.07;1.80;;;20.50;99.90;;;;;;5051718;28;20056;-76
2023/08/21 02:19:24;;;;;;;4.63;1.20;;;20.60;99.90;;;;;;5063648;28;20036;-76
2023/08/21 02:21:49;;;;;;;3.83;1.50;;;20.60;99.90;;;;;;5069558;28;20086;-76
2023/08/21 02:24:15;;;;;;;4.57;1.77;;;20.60;99.90;;;;;;5060665;28;20550;-76
2023/08/21 02:26:42;;;;;;;4.38;1.55;;;20.60;99.90;;;;;;5063298;28;20037;-76
2023/08/21 02:29:07;;;;;;;2.97;1.13;;;20.60;99.90;;;;;;5054137;28;20027;-75
2023/08/21 02:31:33;;;;;;;3.58;1.33;;;20.70;99.90;;;;;;5054714;28;20029;-75
2023/08/21 02:33:58;;;;;;;2.90;1.30;;;20.70;99.90;;;;;;5064035;28;20025;-76
2023/08/21 02:36:24;;;;;;;3.42;1.38;;;20.70;99.90;;;;;;5050435;28;20036;-76
2023/08/21 02:38:50;;;;;;;4.22;1.45;;;20.70;99.90;;;;;;5065495;28;20031;-76
2023/08/21 02:41:15;;;;;;;7.05;1.63;;;20.70;99.90;;;;;;5067848;28;20082;-76
2023/08/21 02:43:41;;;;;;;5.72;1.63;;;20.60;99.90;;;;;;5066477;28;20028;-76
2023/08/21 02:46:07;;;;;;;3.55;1.50;;;20.60;99.90;;;;;;5068356;28;20052;-76
2023/08/21 02:48:32;;;;;;;3.60;1.48;;;20.60;99.90;;;;;;5066438;28;20024;-76
2023/08/21 02:50:58;;;;;;;5.10;1.45;;;20.60;99.90;;;;;;5054301;28;20393;-76
2023/08/21 02:53:23;;;;;;;5.30;1.73;;;20.60;99.90;;;;;;5048370;28;20041;-76
2023/08/21 02:55:49;;;;;;;5.35;1.83;;;20.60;99.90;;;;;;5049331;28;20088;-76
2023/08/21 02:58:14;;;;;;;3.45;1.35;;;20.60;99.90;;;;;;5049404;28;20048;-76
2023/08/21 03:00:40;;;;;;;4.00;1.33;;;20.60;99.90;;;;;;5048964;28;20037;-76
2023/08/21 03:03:05;;;;;;;5.70;1.42;;;20.60;99.90;;;;;;5049367;28;20032;-76
2023/08/21 03:05:31;;;;;;;4.82;1.20;;;20.60;99.90;;;;;;5048764;28;20113;-76
2023/08/21 03:07:56;;;;;;;2.28;0.80;;;20.50;99.90;;;;;;5049413;28;20086;-76
2023/08/21 03:10:23;;;;;;;5.35;2.05;;;20.60;99.90;;;;;;5048130;28;20032;-76
2023/08/21 03:12:49;;;;;;;9.10;1.83;;;20.60;99.90;;;;;;5048862;28;20489;-76
2023/08/21 03:15:15;;;;;;;7.13;1.67;;;20.60;99.90;;;;;;5047642;28;20060;-76
2023/08/21 03:17:41;;;;;;;4.32;1.42;;;20.60;99.90;;;;;;5048271;28;20029;-76
2023/08/21 03:20:07;;;;;;;7.57;1.85;;;20.60;99.90;;;;;;5048317;28;20078;-76
2023/08/21 03:22:33;;;;;;;3.05;1.45;;;20.70;99.90;;;;;;5053044;28;20016;-76
2023/08/21 03:24:58;;;;;;;4.10;1.40;;;20.70;99.90;;;;;;5048248;28;20029;-76
2023/08/21 03:27:24;;;;;;;2.35;1.30;;;20.70;99.90;;;;;;5047804;28;20017;-76
2023/08/21 03:29:50;;;;;;;4.60;2.30;;;20.70;99.90;;;;;;5046956;28;20021;-76
2023/08/21 03:32:19;;;;;;;5.28;1.48;;;20.70;99.90;;;;;;5048508;28;20370;-76
2023/08/21 03:34:45;;;;;;;5.68;1.50;;;20.60;99.90;;;;;;5060600;28;20078;-75
2023/08/21 03:37:10;;;;;;;5.70;1.98;;;20.60;99.90;;;;;;5061810;28;20028;-76
2023/08/21 03:39:36;;;;;;;5.03;1.67;;;20.60;99.90;;;;;;5066565;28;20461;-76
2023/08/21 03:42:02;;;;;;;3.45;1.17;;;20.60;99.90;;;;;;5068608;28;20017;-76
2023/08/21 03:44:27;;;;;;;3.05;1.85;;;20.60;99.90;;;;;;5067209;28;20063;-76
2023/08/21 03:46:53;;;;;;;6.88;1.88;;;20.50;99.90;;;;;;5068466;28;20075;-76
2023/08/21 03:49:18;;;;;;;6.95;1.58;;;20.50;99.90;;;;;;5066576;28;20027;-76
2023/08/21 03:51:44;;;;;;;4.20;1.30;;;20.40;99.90;;;;;;5048345;28;20021;-76
2023/08/21 03:54:10;;;;;;;5.00;1.50;;;20.40;99.90;;;;;;5048156;28;20091;-76
2023/08/21 03:56:36;;;;;;;4.28;1.33;;;20.40;99.90;;;;;;5066769;28;20039;-76
2023/08/21 03:59:02;;;;;;;7.10;1.92;;;20.30;99.90;;;;;;5056495;28;20095;-76
2023/08/21 04:01:27;;;;;;;4.38;1.55;;;20.20;99.90;;;;;;5052061;28;20477;-76
2023/08/21 04:03:53;;;;;;;3.05;1.25;;;20.20;99.90;;;;;;5052521;28;20032;-76
2023/08/21 04:06:18;;;;;;;2.90;1.20;;;20.10;99.90;;;;;;5050766;28;20036;-76
2023/08/21 04:08:44;;;;;;;7.10;1.77;;;20.10;99.90;;;;;;5051782;28;20048;-76
2023/08/21 04:11:09;;;;;;;5.30;1.33;;;20.00;99.90;;;;;;5051370;28;20373;-76
2023/08/21 04:13:35;;;;;;;3.88;1.60;;;20.00;99.90;;;;;;5052185;28;20146;-76
2023/08/21 04:16:01;;;;;;;3.10;1.33;;;19.90;99.90;;;;;;5052704;28;20493;-76
2023/08/21 04:18:26;;;;;;;5.35;1.27;;;19.90;99.90;;;;;;5063857;28;20519;-76
2023/08/21 04:20:52;;;;;;;3.55;1.00;;;19.80;99.90;;;;;;5071432;28;20028;-76
2023/08/21 04:23:17;;;;;;;3.20;1.25;;;20.00;99.90;;;;;;5071301;28;20381;-76
2023/08/21 04:25:43;;;;;;;1.77;1.10;;;19.90;99.90;;;;;;5063775;28;20051;-76
2023/08/21 04:28:09;;;;;;;4.10;1.40;;;20.00;99.90;;;;;;5071556;28;20051;-76
2023/08/21 04:30:35;;;;;;;4.50;1.55;;;20.00;99.90;;;;;;5069963;28;20029;-76
2023/08/21 04:33:01;;;;;;;3.42;1.40;;;20.00;99.90;;;;;;5062707;28;20028;-76
2023/08/21 04:35:26;;;;;;;4.65;1.40;;;20.00;99.90;;;;;;5055449;28;20024;-76
2023/08/21 04:37:52;;;;;;;4.45;1.25;;;20.00;99.90;;;;;;5058804;28;20473;-76
2023/08/21 04:40:20;;;;;;;2.80;1.35;;;20.00;99.90;;;;;;5053012;28;20017;-76
2023/08/21 04:42:46;;;;;;;2.75;1.30;;;19.90;99.90;;;;;;5059551;28;20040;-76
2023/08/21 04:45:12;;;;;;;2.95;1.55;;;20.00;99.90;;;;;;5069759;28;20063;-76
2023/08/21 04:47:37;;;;;;;3.88;1.70;;;20.00;99.90;;;;;;5067610;28;20051;-77
2023/08/21 04:50:03;;;;;;;4.57;1.83;;;19.90;99.90;;;;;;5063646;28;20029;-76
2023/08/21 04:52:29;;;;;;;2.38;1.10;;;19.90;99.90;;;;;;5061798;28;20051;-76
2023/08/21 04:54:55;;;;;;;4.22;1.10;;;19.90;99.90;;;;;;5060496;28;20064;-76
2023/08/21 04:57:21;;;;;;;2.80;1.08;;;20.00;99.90;;;;;;5050861;28;20040;-76
2023/08/21 04:59:47;;;;;;;3.38;1.48;;;20.00;99.90;;;;;;5051554;28;20507;-76
2023/08/21 05:02:13;;;;;;;5.15;1.13;;;20.00;99.90;;;;;;5057223;28;20025;-76
2023/08/21 05:04:38;;;;;;;4.95;1.60;;;20.10;99.90;;;;;;5063423;28;20409;-76
2023/08/21 05:07:04;;;;;;;4.55;1.20;;;20.20;99.90;;;;;;5055677;28;20475;-76
2023/08/21 05:09:33;;;;;;;3.20;1.30;;;20.20;99.90;;;;;;5051867;28;20029;-75
2023/08/21 05:11:59;;;;;;;5.03;1.25;;;20.20;99.90;;;;;;5051535;28;20048;-76
2023/08/21 05:14:25;;;;;;;5.82;1.30;;;20.20;99.90;;;;;;5051809;28;20075;-76
2023/08/21 05:16:50;;;;;;;2.85;1.25;;;20.30;99.90;;;;;;5053486;28;20481;-76
2023/08/21 05:19:17;;;;;;;2.95;1.17;;;20.30;99.90;;;;;;5052188;28;20100;-76
2023/08/21 05:21:43;;;;;;;3.97;0.95;;;20.30;99.90;;;;;;5053076;28;20053;-75
2023/08/21 05:24:08;;;;;;;4.65;1.25;;;20.30;99.90;;;;;;5052300;28;20020;-76
2023/08/21 05:26:36;;;;;;;6.70;1.60;;;20.30;99.90;;;;;;5052984;28;20435;-76
2023/08/21 05:29:02;;;;;;;3.20;1.30;;;20.20;99.90;;;;;;5060283;28;20032;-75
2023/08/21 05:31:28;;;;;;;4.82;1.40;;;20.20;99.90;;;;;;5051366;28;20040;-75
2023/08/21 05:33:53;;;;;;;4.45;1.23;;;20.30;99.90;;;;;;5057316;28;20024;-76
2023/08/21 05:36:19;;;;;;;4.80;1.40;;;20.30;99.90;;;;;;5062722;28;20029;-76
2023/08/21 05:38:45;;;;;;;4.82;1.15;;;20.40;99.90;;;;;;5061996;28;20017;-78
2023/08/21 05:41:11;;;;;;;4.70;1.23;;;20.40;99.90;;;;;;5058698;28;20389;-77
2023/08/21 05:43:36;;;;;;;4.78;1.83;;;20.50;99.90;;;;;;5053067;28;20029;-77
2023/08/21 05:46:05;;;;;;;3.55;1.10;;;20.50;99.90;;;;;;5056444;28;20031;-77
2023/08/21 05:48:30;;;;;;;4.53;1.35;;;20.50;99.90;;;;;;5052783;28;20032;-77
2023/08/21 05:50:57;;;;;;;3.85;1.60;;;20.50;99.90;;;;;;5052885;28;20029;-77
2023/08/21 05:53:22;;;;;;;4.40;1.75;;;20.50;99.90;;;;;;5065109;28;20045;-77
2023/08/21 05:55:48;;;;;;;3.10;0.98;;;20.50;99.90;;;;;;5050805;28;20115;-77
2023/08/21 05:58:14;;;;;;;2.63;1.20;;;20.50;99.90;;;;;;5057533;28;20092;-78
2023/08/21 06:00:40;;;;;;;3.78;1.20;;;20.60;99.90;;;;;;5056089;28;20021;-77
2023/08/21 06:03:05;;;;;;;6.03;1.75;;;20.60;99.90;;;;;;5050520;28;20537;-77
2023/08/21 06:05:31;;;;;;;6.60;1.45;;;20.70;99.90;;;;;;5050165;28;20060;-77
2023/08/21 06:07:56;;;;;;;7.50;1.50;;;20.80;99.90;;;;;;5050293;28;20028;-76
2023/08/21 06:10:22;;;;;;;3.63;1.08;;;20.90;99.90;;;;;;5049362;28;20028;-77
2023/08/21 06:12:48;;;;;;;2.97;1.13;;;21.00;99.90;;;;;;5052686;28;20049;-77
2023/08/21 06:15:14;;;;;;;5.05;1.25;;;21.00;99.90;;;;;;5051555;28;20477;-77
2023/08/21 06:17:41;;;;;;;4.90;1.35;;;21.10;99.90;;;;;;5054500;28;20095;-78
2023/08/21 06:20:08;;;;;;;3.88;1.48;;;21.10;99.90;;;;;;5054682;28;20429;-78
2023/08/21 06:22:35;;;;;;;5.00;1.20;;;21.20;99.90;;;;;;5052424;28;20074;-77
2023/08/21 06:25:01;;;;;;;4.18;1.40;;;21.20;99.90;;;;;;5061156;28;20028;-77
2023/08/21 06:27:26;;;;;;;2.83;1.23;;;21.30;99.90;;;;;;5056006;28;20474;-77
2023/08/21 06:29:52;;;;;;;2.88;1.38;;;21.40;99.90;;;;;;5061035;28;20035;-73
2023/08/21 06:32:18;;;;;;;4.15;1.15;;;21.50;99.70;;;;;;5055292;28;20103;-74
2023/08/21 06:34:43;;;;;;;2.65;0.82;;;21.60;99.50;;;;;;5054816;28;20025;-74
2023/08/21 06:37:09;;;;;;;5.05;1.00;;;21.60;99.50;;;;;;5054961;28;20512;-74
2023/08/21 06:39:35;;;;;;;4.97;1.30;;;21.70;99.40;;;;;;5059426;28;20366;-73
2023/08/21 06:42:00;;;;;;;6.90;1.42;;;21.60;99.40;;;;;;5055346;28;20025;-74
2023/08/21 06:44:26;;;;;;;4.70;1.55;;;21.60;99.20;;;;;;5059320;28;20031;-74
2023/08/21 06:46:52;;;;;;;4.13;1.45;;;21.60;99.20;;;;;;5054847;28;20094;-74
2023/08/21 06:49:17;;;;;;;4.63;1.33;;;21.60;99.20;;;;;;5059553;28;20025;-73
2023/08/21 06:51:43;;;;;;;4.03;1.42;;;21.50;99.20;;;;;;5049042;28;20031;-74
2023/08/21 06:54:09;;;;;;;2.97;1.38;;;21.60;99.40;;;;;;5049607;28;20406;-74
2023/08/21 06:56:34;;;;;;;5.93;1.33;;;21.50;99.30;;;;;;5060565;28;20035;-73
2023/08/21 06:59:00;;;;;;;4.50;1.33;;;21.60;99.30;;;;;;5050364;28;20064;-73
2023/08/21 07:01:26;;;;;;;4.32;1.35;;;21.60;99.40;;;;;;5048902;28;20248;-73
2023/08/21 07:03:51;;;;;;;4.93;1.17;;;21.60;99.20;;;;;;5051421;28;20052;-73
2023/08/21 07:06:17;;;;;;;7.30;2.45;;;21.60;99.20;;;;;;5050178;28;20031;-73
2023/08/21 07:08:42;;;;;;;4.95;1.52;;;21.60;99.10;;;;;;5047323;28;20381;-73
2023/08/21 07:11:09;;;;;;;2.72;1.10;;;21.60;99.30;;;;;;5048236;28;20123;-72
2023/08/21 07:13:36;;;;;;;6.78;1.45;;;21.70;99.00;;;;;;5058897;28;20052;-72
2023/08/21 07:16:02;;;;;;;8.98;1.65;;;21.70;98.80;;;;;;5060924;28;20020;-73
2023/08/21 07:18:32;;;;;;;7.35;1.42;;;21.80;98.70;;;;;;5055678;28;20017;-73
2023/08/21 07:20:57;;;;;;;4.55;1.63;;;21.80;98.40;;;;;;5059672;28;20033;-72
2023/08/21 07:23:23;;;;;;;3.85;1.10;;;21.90;98.20;;;;;;5058802;28;20013;-73
2023/08/21 07:25:49;;;;;;;4.95;1.15;;;22.00;98.10;;;;;;5055721;28;20025;-73
2023/08/21 07:28:14;;;;;;;5.45;1.40;;;22.10;98.00;;;;;;5058256;28;20032;-72
2023/08/21 07:30:40;;;;;;;6.75;1.30;;;22.30;97.90;;;;;;5063011;28;20036;-72
2023/08/21 07:33:05;;;;;;;3.25;1.02;;;22.40;97.90;;;;;;5057794;28;20025;-73
2023/08/21 07:35:32;;;;;;;7.25;1.60;;;22.60;97.60;;;;;;5057175;28;20032;-73
2023/08/21 07:37:58;;;;;;;5.38;1.27;;;22.80;97.20;;;;;;5061810;28;20095;-72
2023/08/21 07:40:24;;;;;;;4.32;1.40;;;22.90;97.00;;;;;;5062740;28;20008;-72
2023/08/21 07:42:50;;;;;;;8.73;1.38;;;23.00;96.80;;;;;;5068869;28;20032;-72
2023/08/21 07:45:16;;;;;;;4.07;1.70;;;23.00;96.90;;;;;;5066601;28;20096;-72
2023/08/21 07:47:42;;;;;;;6.55;1.65;;;23.00;96.80;;;;;;5069146;28;20115;-72
2023/08/21 07:50:08;;;;;;;4.63;1.35;;;23.10;96.50;;;;;;5061723;28;20021;-72
2023/08/21 07:52:34;;;;;;;4.35;1.05;;;23.10;96.50;;;;;;5063789;28;20055;-72
2023/08/21 07:55:00;;;;;;;4.53;0.98;;;23.20;96.60;;;;;;5070026;28;20041;-72
2023/08/21 07:57:30;;;;;;;5.40;1.35;;;23.20;96.80;;;;;;5069179;28;20082;-72
2023/08/21 07:59:56;;;;;;;6.85;1.40;;;23.30;96.90;;;;;;5070135;28;20020;-72
2023/08/21 08:02:22;;;;;;;5.45;1.70;;;23.40;96.80;;;;;;5056875;28;20112;-72
2023/08/21 08:04:48;;;;;;;4.95;1.40;;;23.50;96.70;;;;;;5053839;28;20057;-72
2023/08/21 08:07:14;;;;;;;5.10;1.45;;;23.50;96.70;;;;;;5054008;28;20055;-72
2023/08/21 08:09:39;;;;;;;8.65;1.65;;;23.60;96.70;;;;;;5053277;28;20040;-72
2023/08/21 08:12:05;;;;;;;5.38;1.45;;;23.70;96.80;;;;;;5063720;28;20067;-72
2023/08/21 08:14:31;;;;;;;7.40;1.48;;;23.80;96.70;;;;;;5059193;28;20038;-72
2023/08/21 08:16:57;;;;;;;4.47;1.15;;;23.80;96.50;;;;;;5060243;28;20028;-72
2023/08/21 08:19:23;;;;;;;4.97;1.83;;;23.80;96.40;;;;;;5062971;28;20025;-72
2023/08/21 08:21:48;;;;;;;2.92;1.65;;;23.90;96.40;;;;;;5059736;28;20082;-72
2023/08/21 08:24:14;;;;;;;5.28;1.33;;;23.80;96.30;;;;;;5065399;28;20032;-70
2023/08/21 08:26:40;;;;;;;8.27;1.73;;;23.80;96.20;;;;;;5067046;28;20543;-72
2023/08/21 08:29:06;;;;;;;3.88;0.85;;;23.80;96.30;;;;;;5055168;28;20056;-72
2023/08/21 08:31:31;;;;;;;4.80;1.65;;;23.90;96.30;;;;;;5058383;28;20060;-72
2023/08/21 08:33:57;;;;;;;4.95;1.42;;;23.90;96.10;;;;;;5054013;28;20028;-73
2023/08/21 08:36:23;;;;;;;4.78;1.25;;;23.90;96.00;;;;;;5053874;28;20141;-73
2023/08/21 08:38:48;;;;;;;4.85;1.50;;;24.00;95.90;;;;;;5053997;28;20106;-73
2023/08/21 08:41:30;;;;;;;5.35;1.25;;;24.00;95.60;;;;;;5055454;28;20027;-73
2023/08/21 08:44:00;;;;;;;7.60;1.65;;;24.20;95.50;;;;;;5053364;28;20025;-73
2023/08/21 08:46:28;;;;;;;6.28;0.98;;;24.20;95.20;;;;;;5055201;28;20081;-73
2023/08/21 08:48:54;;;;;;;4.93;1.42;;;24.30;95.20;;;;;;5052422;28;20151;-73
2023/08/21 08:51:21;;;;;;;6.55;1.27;;;24.40;94.90;;;;;;5056802;28;20025;-73
2023/08/21 08:53:47;;;;;;;4.53;1.20;;;24.40;94.60;;;;;;5071305;28;20057;-73
2023/08/21 08:56:13;;;;;;;3.20;1.02;;;24.50;94.60;;;;;;5053427;28;20017;-73
2023/08/21 08:58:40;;;;;;;5.80;1.38;;;24.60;94.10;;;;;;5066970;28;20032;-73
2023/08/21 09:01:05;;;;;;;4.00;1.13;;;24.60;93.80;;;;;;5069174;28;20024;-73
2023/08/21 09:03:31;;;;;;;2.65;1.00;;;24.50;93.50;;;;;;5062146;28;20044;-72
2023/08/21 09:06:00;;;;;;;4.90;1.05;;;24.50;93.40;;;;;;5057423;28;20032;-72
2023/08/21 09:08:25;;;;;;;3.28;1.10;;;24.50;93.20;;;;;;5056671;28;20449;-73
2023/08/21 09:10:51;;;;;;;2.65;0.88;;;24.60;93.00;;;;;;5057000;28;20049;-72
2023/08/21 09:13:18;;;;;;;4.05;1.17;;;24.60;92.90;;;;;;5049960;28;20375;-73
2023/08/21 09:15:52;;;;;;;5.45;1.13;;;24.80;92.50;;;;;;5051084;28;20033;-72
2023/08/21 09:18:18;;;;;;;5.20;1.23;;;24.90;92.30;;;;;;5051937;28;20040;-72
2023/08/21 09:20:43;;;;;;;3.97;1.00;;;25.00;92.10;;;;;;5053317;28;20025;-73
2023/08/21 09:23:14;;;;;;;3.95;0.90;;;25.10;92.00;;;;;;5052588;28;20470;-73
2023/08/21 09:25:40;;;;;;;3.33;0.90;;;25.20;92.10;;;;;;5062546;28;20037;-73
2023/08/21 09:28:07;;;;;;;2.83;1.10;;;25.20;91.80;;;;;;5053306;28;20079;-73
2023/08/21 09:30:50;;;;;;;6.43;1.60;;;25.30;91.80;;;;;;5051027;28;20032;-72
2023/08/21 09:33:20;;;;;;;6.22;0.75;;;25.40;91.30;;;;;;5060267;28;20046;-72
2023/08/21 09:35:47;;;;;;;4.18;1.77;;;25.30;91.20;;;;;;5059487;28;20067;-72
2023/08/21 09:38:14;;;;;;;4.13;1.13;;;25.20;91.20;;;;;;5059619;28;20025;-73
2023/08/21 09:40:51;;;;;;;5.07;1.58;;;25.10;91.20;;;;;;5062591;28;20036;-74
2023/08/21 09:43:16;;;;;;;4.25;1.05;;;25.10;91.20;;;;;;5059441;28;20025;-74
2023/08/21 09:45:46;;;;;;;5.55;1.00;;;25.10;91.30;;;;;;5061469;28;20044;-74
2023/08/21 09:48:12;;;;;;;4.80;1.00;;;25.10;91.50;;;;;;5056572;28;20024;-73
2023/08/21 09:50:40;;;;;;;5.95;1.08;;;25.10;91.50;;;;;;5056826;28;20082;-73
2023/08/21 09:53:06;;;;;;;3.55;1.20;;;25.20;91.50;;;;;;5067890;28;20040;-73
2023/08/21 09:55:32;;;;;;;7.57;1.27;;;25.20;91.30;;;;;;5063697;28;20029;-73
2023/08/21 09:58:02;;;;;;;3.60;0.98;;;25.30;91.20;;;;;;5066169;28;20075;-73
2023/08/21 10:00:37;;;;;;;6.03;1.10;;;25.30;91.00;;;;;;5063142;28;20496;-72
2023/08/21 10:03:07;;;;;;;4.95;1.20;;;25.40;91.00;;;;;;5057178;28;20485;-73
2023/08/21 10:05:34;;;;;;;3.08;1.20;;;25.40;90.90;;;;;;5052561;28;20397;-73
2023/08/21 10:08:04;;;;;;;5.82;1.02;;;25.40;90.80;;;;;;5050856;28;20056;-73
2023/08/21 10:10:32;;;;;;;7.35;1.23;;;25.40;90.80;;;;;;5050506;28;20039;-74
2023/08/21 10:12:59;;;;;;;3.58;1.20;;;25.40;90.60;;;;;;5049334;28;20529;-75
2023/08/21 10:15:25;;;;;;;3.45;0.98;;;25.40;90.40;;;;;;5050071;28;20040;-74
2023/08/21 10:17:51;;;;;;;5.00;1.73;;;25.40;90.10;;;;;;5050593;28;20095;-74
2023/08/21 10:20:24;;;;;;;7.43;1.70;;;25.30;90.10;;;;;;5050506;28;20552;-74
2023/08/21 10:22:54;;;;;;;6.13;1.58;;;25.20;90.40;;;;;;5050238;28;20025;-73
2023/08/21 10:25:25;;;;;;;5.53;1.90;;;25.00;90.80;;;;;;5052692;28;20016;-73
2023/08/21 10:27:56;;;;;;;5.22;1.20;;;25.00;91.10;;;;;;5057332;28;20043;-73
2023/08/21 10:30:26;;;;;;;8.23;1.83;;;25.00;91.30;;;;;;5056373;28;20437;-73
2023/08/21 10:32:54;;;;;;;5.03;1.30;;;24.90;91.50;;;;;;5056091;28;20021;-73
2023/08/21 10:35:22;;;;;;;3.13;0.80;;;24.90;91.30;;;;;;5051020;28;20033;-73
2023/08/21 10:38:15;;;;;;;3.47;1.25;;;24.90;91.20;;;;;;5060611;28;20413;-73
2023/08/21 10:41:01;;;;;;;2.28;1.05;;;25.00;90.60;;;;;;5047283;28;20103;-72
2023/08/21 10:43:46;;;;;;;5.07;1.17;;;25.00;90.30;;;;;;5064705;28;20452;-73
2023/08/21 10:46:12;;;;;;;4.30;0.98;;;25.10;90.40;;;;;;5064198;28;20055;-73
2023/08/21 10:48:39;;;;;;;2.92;1.30;;;25.10;90.40;;;;;;5076809;28;20025;-72
2023/08/21 10:51:07;;;;;;;5.03;1.45;;;25.20;90.40;;;;;;5053027;28;20024;-73
2023/08/21 10:53:33;;;;;;;3.78;1.25;;;25.20;90.30;;;;;;5055099;28;20057;-72
2023/08/21 10:56:06;;;;;;;7.65;1.55;;;25.30;90.10;;;;;;5068360;28;20047;-73
2023/08/21 10:58:40;;;;;;;6.03;1.33;;;25.30;90.00;;;;;;5065196;28;20032;-73
2023/08/21 11:01:06;;;;;;;4.45;1.35;;;25.30;90.20;;;;;;5066913;28;20420;-72
2023/08/21 11:03:31;;;;;;;5.22;1.65;;;25.30;90.20;;;;;;5063015;28;20550;-73
2023/08/21 11:06:04;;;;;;;5.70;1.33;;;25.40;90.10;;;;;;5053589;28;20037;-73
2023/08/21 11:08:32;;;;;;;3.30;0.95;;;25.40;89.10;;;;;;5050187;28;20025;-73
2023/08/21 11:10:58;;;;;;;6.18;1.10;;;25.40;88.10;;;;;;5049337;28;20033;-73
2023/08/21 11:13:24;;;;;;;2.70;1.08;;;25.30;88.00;;;;;;5049004;28;20132;-73
2023/08/21 11:16:06;;;;;;;3.95;1.30;;;25.40;88.10;;;;;;5051354;28;20021;-72
2023/08/21 11:18:33;;;;;;;3.50;1.30;;;25.40;88.30;;;;;;5049804;28;20028;-71
2023/08/21 11:21:08;;;;;;;5.70;1.63;;;25.40;88.60;;;;;;5068007;28;20120;-72
2023/08/21 11:23:35;;;;;;;7.40;1.48;;;25.50;89.10;;;;;;5053801;28;20033;-72
2023/08/21 11:26:03;;;;;;;4.35;1.35;;;25.60;88.70;;;;;;5059184;28;20028;-72
2023/08/21 11:28:29;;;;;;;2.83;1.02;;;25.60;89.00;;;;;;5050258;28;20431;-72
2023/08/21 11:30:56;;;;;;;5.43;1.25;;;25.60;89.30;;;;;;5050396;28;20086;-71
2023/08/21 11:33:21;;;;;;;2.85;0.90;;;25.70;89.30;;;;;;5049975;28;20105;-74
2023/08/21 11:35:47;;;;;;;3.40;0.85;;;25.70;88.60;;;;;;5050302;28;20497;-73
2023/08/21 11:38:24;;;;;;;3.30;1.00;;;25.80;88.00;;;;;;5051103;28;20533;-73
2023/08/21 11:41:00;;;;;;;3.97;1.17;;;25.80;86.90;;;;;;5065832;28;20017;-73
2023/08/21 11:43:39;;;;;;;4.38;1.13;;;25.90;87.10;;;;;;5066069;28;20066;-73
2023/08/21 11:46:06;;;;;;;3.25;0.88;;;25.90;87.10;;;;;;5062769;28;20401;-73
2023/08/21 11:48:32;;;;;;;5.25;1.13;;;26.00;86.90;;;;;;5062504;28;20556;-73
2023/08/21 11:50:58;;;;;;;4.82;1.05;;;26.00;86.00;;;;;;5053066;28;20747;-73
2023/08/21 11:53:51;;;;;;;4.32;1.30;;;26.00;86.20;;;;;;5060112;28;20056;-73
2023/08/21 11:56:18;;;;;;;7.05;0.90;;;26.10;85.80;;;;;;5065837;28;20052;-73
2023/08/21 11:58:45;;;;;;;4.15;0.85;;;26.10;85.40;;;;;;5066668;28;20393;-73
2023/08/21 12:01:15;;;;;;;5.97;1.90;;;26.10;84.80;;;;;;5051817;28;20032;-73
2023/08/21 12:03:41;;;;;;;6.80;1.38;;;26.10;85.60;;;;;;5063758;28;20116;-73
2023/08/21 12:06:12;;;;;;;3.90;1.40;;;26.20;86.20;;;;;;5051692;28;20119;-73
2023/08/21 12:08:38;;;;;;;4.72;1.48;;;26.20;85.20;;;;;;5048718;28;20029;-73
2023/08/21 12:11:04;;;;;;;5.45;1.45;;;26.20;84.60;;;;;;5055976;28;20096;-73
2023/08/21 12:13:30;;;;;;;4.47;1.02;;;26.20;84.10;;;;;;5061851;28;20572;-73
2023/08/21 12:15:56;;;;;;;3.97;1.25;;;26.10;84.00;;;;;;5060154;28;20071;-73
2023/08/21 12:18:21;;;;;;;6.25;1.23;;;26.10;84.40;;;;;;5054637;28;20048;-73
2023/08/21 12:20:47;;;;;;;4.65;1.48;;;26.10;84.50;;;;;;5054436;28;20610;-73
2023/08/21 12:23:13;;;;;;;3.80;1.05;;;26.20;84.00;;;;;;5070121;28;20554;-72
2023/08/21 12:25:38;;;;;;;2.58;1.75;;;26.20;83.80;;;;;;5069165;28;20040;-73
2023/08/21 12:28:05;;;;;;;2.95;1.58;;;26.30;83.80;;;;;;5070737;28;20021;-74
2023/08/21 12:30:31;;;;;;;6.93;1.40;;;26.40;83.20;;;;;;5056836;28;20024;-73
2023/08/21 12:32:56;;;;;;;6.65;1.80;;;26.30;82.50;;;;;;5063301;28;20193;-73
2023/08/21 12:35:22;;;;;;;4.78;1.30;;;26.30;82.20;;;;;;5050729;28;20040;-73
2023/08/21 12:37:47;;;;;;;6.95;2.05;;;26.30;82.70;;;;;;5067899;28;20580;-73
2023/08/21 12:40:13;;;;;;;4.40;1.20;;;26.30;82.70;;;;;;5064365;28;20024;-73
2023/08/21 12:42:39;;;;;;;4.05;1.00;;;26.30;82.50;;;;;;5065268;28;20087;-73
2023/08/21 12:45:05;;;;;;;3.40;1.08;;;26.30;82.40;;;;;;5062999;28;20158;-73
2023/08/21 12:47:30;;;;;;;4.97;1.17;;;26.30;82.80;;;;;;5066511;28;20025;-72